Time,TemperatureF,DewpointF,PressureIn,WindDirection,WindDirectionDegrees,WindSpeedMPH,WindSpeedGustMPH,Humidity,HourlyPrecipIn,Conditions,Clouds,dailyrainin,SoftwareType,DateUTC
2013-03-03 00:00:00,57.8,48.5,30.01,WSW,238,1.0,1.0,71,0.00,,,0.00,Wunderground v.1.15,2013-03-03 08:00:00,
2013-03-03 00:05:00,57.6,48.3,30.01,West,259,1.0,1.0,71,0.00,,,0.00,Wunderground v.1.15,2013-03-03 08:05:00,
2013-03-03 00:15:00,57.8,48.1,30.01,NW,307,1.0,1.0,70,0.00,,,0.00,Wunderground v.1.15,2013-03-03 08:15:00,
2013-03-03 00:20:00,57.8,48.1,30.01,NW,307,0.0,1.0,70,0.00,,,0.00,Wunderground v.1.15,2013-03-03 08:20:00,
2013-03-03 00:25:00,57.4,48.1,30.01,NNE,19,0.0,0.0,71,0.00,,,0.00,Wunderground v.1.15,2013-03-03 08:25:00,
2013-03-03 00:30:00,57.0,48.1,30.01,NNE,19,0.0,0.0,72,0.00,,,0.00,Wunderground v.1.15,2013-03-03 08:30:00,
2013-03-03 00:35:00,56.7,48.5,30.01,NNE,19,0.0,0.0,74,0.00,,,0.00,Wunderground v.1.15,2013-03-03 08:35:00,
2013-03-03 00:40:00,56.5,48.3,30.01,NNE,22,0.0,0.0,74,0.00,,,0.00,Wunderground v.1.15,2013-03-03 08:40:00,
2013-03-03 00:50:00,56.1,47.9,30.01,NE,47,0.0,0.0,74,0.00,,,0.00,Wunderground v.1.15,2013-03-03 08:50:00,
2013-03-03 00:55:00,55.9,48.1,30.02,ENE,75,0.0,1.0,75,0.00,,,0.00,Wunderground v.1.15,2013-03-03 08:55:00,
2013-03-03 01:00:00,56.0,47.8,30.02,ESE,115,0.0,0.0,74,0.00,,,0.00,Wunderground v.1.15,2013-03-03 09:00:00,
2013-03-03 01:05:00,55.8,48.0,30.02,ESE,115,0.0,0.0,75,0.00,,,0.00,Wunderground v.1.15,2013-03-03 09:05:00,
2013-03-03 01:15:00,55.4,48.0,30.02,SE,133,0.0,0.0,76,0.00,,,0.00,Wunderground v.1.15,2013-03-03 09:15:00,
2013-03-03 01:20:00,55.1,47.7,30.02,SE,133,0.0,0.0,76,0.00,,,0.00,Wunderground v.1.15,2013-03-03 09:20:00,
2013-03-03 01:25:00,54.9,47.8,30.02,SE,133,0.0,0.0,77,0.00,,,0.00,Wunderground v.1.15,2013-03-03 09:25:00,
2013-03-03 01:35:00,54.4,48.0,30.02,SE,133,0.0,0.0,79,0.00,,,0.00,Wunderground v.1.15,2013-03-03 09:35:00,
2013-03-03 01:40:00,54.1,47.7,30.02,SE,133,0.0,0.0,79,0.00,,,0.00,Wunderground v.1.15,2013-03-03 09:40:00,
2013-03-03 01:45:00,53.9,47.9,30.02,NNE,29,0.0,0.0,80,0.00,,,0.00,Wunderground v.1.15,2013-03-03 09:45:00,
2013-03-03 01:50:00,53.9,47.9,30.01,NNE,30,0.0,0.0,80,0.00,,,0.00,Wunderground v.1.15,2013-03-03 09:50:00,
2013-03-03 02:00:00,53.6,47.9,30.01,East,93,0.0,1.0,81,0.00,,,0.00,Wunderground v.1.15,2013-03-03 10:00:00,
2013-03-03 02:05:00,53.3,47.6,30.01,ESE,105,0.0,1.0,81,0.00,,,0.00,Wunderground v.1.15,2013-03-03 10:05:00,
2013-03-03 02:11:00,53.1,47.7,30.02,NW,326,0.0,1.0,82,0.00,,,0.00,Wunderground v.1.15,2013-03-03 10:11:00,
2013-03-03 02:20:00,53.0,47.7,30.01,NNW,346,0.0,0.0,82,0.00,,,0.00,Wunderground v.1.15,2013-03-03 10:20:00,
2013-03-03 02:30:00,52.8,47.8,30.01,NNW,346,0.0,0.0,83,0.00,,,0.00,Wunderground v.1.15,2013-03-03 10:30:00,
2013-03-03 02:35:00,52.6,47.6,30.01,NNW,346,0.0,0.0,83,0.00,,,0.00,Wunderground v.1.15,2013-03-03 10:35:00,
2013-03-03 02:40:00,52.6,47.6,30.01,NW,326,0.0,0.0,83,0.00,,,0.00,Wunderground v.1.15,2013-03-03 10:40:00,
2013-03-03 02:45:00,52.8,47.8,30.00,NNE,15,0.0,0.0,83,0.00,,,0.00,Wunderground v.1.15,2013-03-03 10:45:00,
2013-03-03 02:50:00,53.0,47.3,30.00,NNW,341,1.0,1.0,81,0.00,,,0.00,Wunderground v.1.15,2013-03-03 10:50:00,
2013-03-03 03:00:00,53.2,47.2,30.00,NE,40,1.0,1.0,80,0.00,,,0.00,Wunderground v.1.15,2013-03-03 11:00:00,
2013-03-03 03:05:00,53.2,47.2,30.00,WSW,248,2.0,2.0,80,0.00,,,0.00,Wunderground v.1.15,2013-03-03 11:05:00,
2013-03-03 03:11:00,53.1,47.1,30.00,NE,43,1.0,1.0,80,0.00,,,0.00,Wunderground v.1.15,2013-03-03 11:11:00,
2013-03-03 03:20:00,52.8,47.1,30.00,WSW,245,0.0,2.0,81,0.00,,,0.00,Wunderground v.1.15,2013-03-03 11:20:00,
2013-03-03 03:26:00,52.6,46.9,30.00,SW,234,0.0,0.0,81,0.00,,,0.00,Wunderground v.1.15,2013-03-03 11:26:00,
2013-03-03 03:35:00,52.4,46.7,30.00,NW,309,0.0,1.0,81,0.00,,,0.00,Wunderground v.1.15,2013-03-03 11:35:00,
2013-03-03 03:40:00,52.6,46.9,30.00,North,352,0.0,1.0,81,0.00,,,0.00,Wunderground v.1.15,2013-03-03 11:40:00,
2013-03-03 03:45:00,52.4,47.1,30.00,West,276,0.0,0.0,82,0.00,,,0.00,Wunderground v.1.15,2013-03-03 11:45:00,
2013-03-03 03:55:00,52.2,46.9,30.00,WSW,239,0.0,1.0,82,0.00,,,0.00,Wunderground v.1.15,2013-03-03 11:55:00,
2013-03-03 04:00:00,52.0,47.0,29.99,WNW,288,0.0,0.0,83,0.00,,,0.00,Wunderground v.1.15,2013-03-03 12:00:00,
2013-03-03 04:05:00,52.1,47.1,30.00,WNW,288,0.0,0.0,83,0.00,,,0.00,Wunderground v.1.15,2013-03-03 12:05:00,
2013-03-03 04:15:00,52.1,47.1,30.00,West,265,0.0,0.0,83,0.00,,,0.00,Wunderground v.1.15,2013-03-03 12:15:00,
2013-03-03 04:20:00,51.9,46.9,30.00,NW,318,0.0,0.0,83,0.00,,,0.00,Wunderground v.1.15,2013-03-03 12:20:00,
2013-03-03 04:25:00,51.8,47.1,30.00,NNE,30,0.0,1.0,84,0.00,,,0.00,Wunderground v.1.15,2013-03-03 12:25:00,
2013-03-03 04:30:00,51.9,46.9,30.00,NNE,30,0.0,1.0,83,0.00,,,0.00,Wunderground v.1.15,2013-03-03 12:30:00,
2013-03-03 04:35:00,52.4,46.7,29.99,WNW,293,1.0,2.0,81,0.00,,,0.00,Wunderground v.1.15,2013-03-03 12:35:00,
2013-03-03 04:45:00,53.7,47.0,29.99,SE,145,1.0,1.0,78,0.00,,,0.00,Wunderground v.1.15,2013-03-03 12:45:00,
2013-03-03 04:50:00,53.7,46.7,29.99,ESE,105,1.0,1.0,77,0.00,,,0.00,Wunderground v.1.15,2013-03-03 12:50:00,
2013-03-03 04:55:00,53.7,46.7,29.99,NE,51,1.0,1.0,77,0.00,,,0.00,Wunderground v.1.15,2013-03-03 12:55:00,
2013-03-03 05:00:00,53.7,46.3,29.99,NE,56,1.0,1.0,76,0.00,,,0.00,Wunderground v.1.15,2013-03-03 13:00:00,
2013-03-03 05:05:00,53.7,46.3,29.99,West,262,0.0,1.0,76,0.00,,,0.00,Wunderground v.1.15,2013-03-03 13:05:00,
2013-03-03 05:15:00,54.1,46.3,29.99,ENE,58,1.0,1.0,75,0.00,,,0.00,Wunderground v.1.15,2013-03-03 13:15:00,
2013-03-03 05:20:00,54.1,46.7,30.00,ENE,58,0.0,1.0,76,0.00,,,0.00,Wunderground v.1.15,2013-03-03 13:20:00,
2013-03-03 05:25:00,54.0,46.6,29.99,NNW,345,0.0,0.0,76,0.00,,,0.00,Wunderground v.1.15,2013-03-03 13:25:00,
2013-03-03 05:30:00,53.8,46.4,29.99,ENE,63,0.0,2.0,76,0.00,,,0.00,Wunderground v.1.15,2013-03-03 13:30:00,
2013-03-03 05:35:00,54.1,46.3,29.99,WNW,293,1.0,1.0,75,0.00,,,0.00,Wunderground v.1.15,2013-03-03 13:35:00,
2013-03-03 05:45:00,54.2,46.1,29.99,ENE,67,1.0,2.0,74,0.00,,,0.00,Wunderground v.1.15,2013-03-03 13:45:00,
2013-03-03 05:50:00,54.1,46.0,29.99,NNE,32,1.0,2.0,74,0.00,,,0.00,Wunderground v.1.15,2013-03-03 13:50:00,
2013-03-03 06:00:00,54.0,45.9,29.99,NNW,347,2.0,4.0,74,0.00,,,0.00,Wunderground v.1.15,2013-03-03 14:00:00,
2013-03-03 06:05:00,53.9,46.2,29.99,ENE,77,3.0,4.0,75,0.00,,,0.00,Wunderground v.1.15,2013-03-03 14:05:00,
2013-03-03 06:15:00,53.8,46.1,29.99,SE,135,1.0,1.0,75,0.00,,,0.00,Wunderground v.1.15,2013-03-03 14:15:00,
2013-03-03 06:20:00,53.7,46.0,29.99,North,5,1.0,2.0,75,0.00,,,0.00,Wunderground v.1.15,2013-03-03 14:20:00,
2013-03-03 06:35:00,53.4,46.0,29.99,NNW,330,2.0,4.0,76,0.00,,,0.00,Wunderground v.1.15,2013-03-03 14:35:00,
2013-03-03 06:45:00,53.4,46.4,29.98,NW,318,3.0,3.0,77,0.00,,,0.00,Wunderground v.1.15,2013-03-03 14:45:00,
2013-03-03 06:55:00,53.5,46.5,29.99,NE,48,3.0,3.0,77,0.00,,,0.00,Wunderground v.1.15,2013-03-03 14:55:00,
2013-03-03 07:00:00,53.5,46.5,29.99,East,95,3.0,3.0,77,0.00,,,0.00,Wunderground v.1.15,2013-03-03 15:00:00,
2013-03-03 07:05:00,53.4,46.4,29.99,NE,46,1.0,3.0,77,0.00,,,0.00,Wunderground v.1.15,2013-03-03 15:05:00,
2013-03-03 07:15:00,53.3,46.6,29.99,ENE,65,0.0,0.0,78,0.00,,,0.00,Wunderground v.1.15,2013-03-03 15:15:00,
2013-03-03 07:20:00,53.2,46.5,29.99,East,91,0.0,1.0,78,0.00,,,0.00,Wunderground v.1.15,2013-03-03 15:20:00,
2013-03-03 07:25:00,53.3,46.6,29.99,NNE,32,1.0,2.0,78,0.00,,,0.00,Wunderground v.1.15,2013-03-03 15:25:00,
2013-03-03 07:30:00,53.4,46.7,29.99,NE,48,1.0,3.0,78,0.00,,,0.00,Wunderground v.1.15,2013-03-03 15:30:00,
2013-03-03 07:35:00,53.5,46.8,29.99,ENE,63,1.0,2.0,78,0.00,,,0.00,Wunderground v.1.15,2013-03-03 15:35:00,
2013-03-03 07:40:00,53.4,46.7,29.99,NNW,333,1.0,2.0,78,0.00,,,0.00,Wunderground v.1.15,2013-03-03 15:40:00,
2013-03-03 07:50:00,53.5,46.8,29.99,North,6,1.0,2.0,78,0.00,,,0.00,Wunderground v.1.15,2013-03-03 15:50:00,
2013-03-03 07:55:00,53.6,46.9,30.00,ENE,59,1.0,1.0,78,0.00,,,0.00,Wunderground v.1.15,2013-03-03 15:55:00,
2013-03-03 08:00:00,53.7,47.0,30.00,NW,321,0.0,0.0,78,0.00,,,0.00,Wunderground v.1.15,2013-03-03 16:00:00,
2013-03-03 08:05:00,53.8,47.1,30.00,East,91,1.0,1.0,78,0.00,,,0.00,Wunderground v.1.15,2013-03-03 16:05:00,
2013-03-03 08:15:00,54.1,47.0,30.00,ENE,75,1.0,1.0,77,0.00,,,0.00,Wunderground v.1.15,2013-03-03 16:15:00,
2013-03-03 08:20:00,54.3,47.2,30.00,WNW,288,0.0,2.0,77,0.00,,,0.00,Wunderground v.1.15,2013-03-03 16:20:00,
2013-03-03 08:25:00,54.7,47.3,29.99,West,269,1.0,2.0,76,0.00,,,0.00,Wunderground v.1.15,2013-03-03 16:25:00,
2013-03-03 08:35:00,56.2,48.0,29.99,SSE,149,1.0,1.0,74,0.00,,,0.00,Wunderground v.1.15,2013-03-03 16:35:00,
2013-03-03 08:40:00,56.5,47.9,29.99,SW,233,1.0,3.0,73,0.00,,,0.00,Wunderground v.1.15,2013-03-03 16:40:00,
2013-03-03 08:45:00,56.3,47.4,29.99,WSW,241,2.0,2.0,72,0.00,,,0.00,Wunderground v.1.15,2013-03-03 16:45:00,
2013-03-03 08:50:00,56.2,47.7,30.00,NW,321,2.0,2.0,73,0.00,,,0.00,Wunderground v.1.15,2013-03-03 16:50:00,
2013-03-03 08:55:00,56.2,47.7,30.00,NE,52,1.0,1.0,73,0.00,,,0.00,Wunderground v.1.15,2013-03-03 16:55:00,
2013-03-03 09:00:00,55.9,47.4,30.00,WNW,294,1.0,1.0,73,0.00,,,0.00,Wunderground v.1.15,2013-03-03 17:00:00,
2013-03-03 09:05:00,55.9,47.7,30.00,WSW,254,1.0,1.0,74,0.00,,,0.00,Wunderground v.1.15,2013-03-03 17:05:00,
2013-03-03 09:15:00,56.1,47.9,30.00,WNW,283,1.0,1.0,74,0.00,,,0.00,Wunderground v.1.15,2013-03-03 17:15:00,
2013-03-03 09:20:00,56.3,47.8,30.00,SW,227,1.0,1.0,73,0.00,,,0.00,Wunderground v.1.15,2013-03-03 17:20:00,
2013-03-03 09:25:00,56.5,47.9,30.00,West,265,1.0,2.0,73,0.00,,,0.00,Wunderground v.1.15,2013-03-03 17:25:00,
2013-03-03 09:30:00,56.6,47.7,30.00,WSW,258,1.0,2.0,72,0.00,,,0.00,Wunderground v.1.15,2013-03-03 17:30:00,
2013-03-03 09:35:00,57.0,48.1,30.00,WSW,258,1.0,3.0,72,0.00,,,0.00,Wunderground v.1.15,2013-03-03 17:35:00,
2013-03-03 09:40:00,57.3,48.3,30.00,SE,146,1.0,3.0,72,0.00,,,0.00,Wunderground v.1.15,2013-03-03 17:40:00,
2013-03-03 09:50:00,58.9,48.7,30.00,WNW,283,2.0,8.0,69,0.00,,,0.00,Wunderground v.1.15,2013-03-03 17:50:00,
2013-03-03 09:55:00,59.3,48.7,30.00,WSW,255,3.0,3.0,68,0.00,,,0.00,Wunderground v.1.15,2013-03-03 17:55:00,
2013-03-03 10:00:00,59.9,48.9,30.00,WSW,258,3.0,7.0,67,0.00,,,0.00,Wunderground v.1.15,2013-03-03 18:00:00,
2013-03-03 10:05:00,60.6,48.8,30.00,SW,224,3.0,7.0,65,0.00,,,0.00,Wunderground v.1.15,2013-03-03 18:05:00,
2013-03-03 10:15:00,60.7,48.0,30.00,SW,231,2.0,2.0,63,0.00,,,0.00,Wunderground v.1.15,2013-03-03 18:15:00,
2013-03-03 10:20:00,61.1,48.0,30.00,WNW,302,2.0,2.0,62,0.00,,,0.00,Wunderground v.1.15,2013-03-03 18:20:00,
2013-03-03 10:25:00,61.4,47.8,29.99,SW,219,3.0,3.0,61,0.00,,,0.00,Wunderground v.1.15,2013-03-03 18:25:00,
2013-03-03 10:30:00,62.2,47.7,29.99,WNW,295,4.0,6.0,59,0.00,,,0.00,Wunderground v.1.15,2013-03-03 18:30:00,
2013-03-03 10:35:00,62.6,47.6,29.99,SW,216,5.0,6.0,58,0.00,,,0.00,Wunderground v.1.15,2013-03-03 18:35:00,
2013-03-03 10:45:00,63.0,48.0,29.99,West,259,3.0,3.0,58,0.00,,,0.00,Wunderground v.1.15,2013-03-03 18:45:00,
2013-03-03 10:50:00,62.9,47.4,29.99,WSW,244,2.0,6.0,57,0.00,,,0.00,Wunderground v.1.15,2013-03-03 18:50:00,
2013-03-03 10:55:00,62.6,47.1,30.00,WSW,256,3.0,3.0,57,0.00,,,0.00,Wunderground v.1.15,2013-03-03 18:55:00,
2013-03-03 11:00:00,63.3,47.3,29.99,West,261,4.0,5.0,56,0.00,,,0.00,Wunderground v.1.15,2013-03-03 19:00:00,
2013-03-03 11:05:00,63.6,46.6,29.99,SSW,199,4.0,5.0,54,0.00,,,0.00,Wunderground v.1.15,2013-03-03 19:05:00,
2013-03-03 11:15:00,63.3,47.3,29.99,WSW,245,4.0,9.0,56,0.00,,,0.00,Wunderground v.1.15,2013-03-03 19:15:00,
2013-03-03 11:20:00,62.9,47.4,29.99,SW,231,5.0,5.0,57,0.00,,,0.00,Wunderground v.1.15,2013-03-03 19:20:00,
2013-03-03 11:25:00,62.7,47.2,29.99,SW,223,5.0,5.0,57,0.00,,,0.00,Wunderground v.1.15,2013-03-03 19:25:00,
2013-03-03 11:30:00,62.4,46.5,29.99,SW,231,6.0,6.0,56,0.00,,,0.00,Wunderground v.1.15,2013-03-03 19:30:00,
2013-03-03 11:35:00,62.2,46.8,29.99,West,262,6.0,6.0,57,0.00,,,0.00,Wunderground v.1.15,2013-03-03 19:35:00,
2013-03-03 11:40:00,62.2,46.8,29.99,SW,224,4.0,4.0,57,0.00,,,0.00,Wunderground v.1.15,2013-03-03 19:40:00,
2013-03-03 11:50:00,63.0,46.6,29.99,SW,217,4.0,5.0,55,0.00,,,0.00,Wunderground v.1.15,2013-03-03 19:50:00,
2013-03-03 11:55:00,63.5,45.6,29.99,SW,226,5.0,5.0,52,0.00,,,0.00,Wunderground v.1.15,2013-03-03 19:55:00,
2013-03-03 12:01:00,64.1,46.6,29.99,SW,226,4.0,6.0,53,0.00,,,0.00,Wunderground v.1.15,2013-03-03 20:01:00,
2013-03-03 12:15:00,64.4,46.9,29.98,WSW,240,3.0,5.0,53,0.00,,,0.00,Wunderground v.1.15,2013-03-03 20:15:00,
2013-03-03 12:20:00,64.7,46.1,29.98,SW,234,4.0,5.0,51,0.00,,,0.00,Wunderground v.1.15,2013-03-03 20:20:00,
2013-03-03 12:25:00,64.8,46.2,29.98,WSW,238,5.0,5.0,51,0.00,,,0.00,Wunderground v.1.15,2013-03-03 20:25:00,
2013-03-03 12:35:00,65.3,45.1,29.97,WSW,252,5.0,6.0,48,0.00,,,0.00,Wunderground v.1.15,2013-03-03 20:35:00,
2013-03-03 12:40:00,65.3,45.6,29.97,WSW,245,5.0,6.0,49,0.00,,,0.00,Wunderground v.1.15,2013-03-03 20:40:00,
2013-03-03 12:45:00,65.6,46.5,29.97,SW,234,4.0,4.0,50,0.00,,,0.00,Wunderground v.1.15,2013-03-03 20:45:00,
2013-03-03 12:50:00,65.9,46.2,29.97,NE,49,3.0,4.0,49,0.00,,,0.00,Wunderground v.1.15,2013-03-03 20:50:00,
2013-03-03 12:55:00,66.0,46.3,29.97,SW,235,3.0,3.0,49,0.00,,,0.00,Wunderground v.1.15,2013-03-03 20:55:00,
2013-03-03 13:05:00,65.5,44.7,29.96,WSW,240,5.0,8.0,47,0.00,,,0.00,Wunderground v.1.15,2013-03-03 21:05:00,
2013-03-03 13:11:00,65.1,46.5,29.96,WSW,253,6.0,6.0,51,0.00,,,0.00,Wunderground v.1.15,2013-03-03 21:11:00,
2013-03-03 13:20:00,66.1,47.4,29.96,WSW,241,4.0,4.0,51,0.00,,,0.00,Wunderground v.1.15,2013-03-03 21:20:00,
2013-03-03 13:25:00,65.9,47.3,29.96,SW,236,3.0,4.0,51,0.00,,,0.00,Wunderground v.1.15,2013-03-03 21:25:00,
2013-03-03 13:30:00,66.4,47.2,29.95,WSW,244,4.0,4.0,50,0.00,,,0.00,Wunderground v.1.15,2013-03-03 21:30:00,
2013-03-03 13:40:00,66.5,47.3,29.95,SSW,205,5.0,5.0,50,0.00,,,0.00,Wunderground v.1.15,2013-03-03 21:40:00,
2013-03-03 13:45:00,66.7,45.8,29.95,WSW,257,4.0,5.0,47,0.00,,,0.00,Wunderground v.1.15,2013-03-03 21:45:00,
2013-03-03 13:50:00,66.4,47.2,29.95,WSW,237,3.0,5.0,50,0.00,,,0.00,Wunderground v.1.15,2013-03-03 21:50:00,
2013-03-03 13:55:00,66.7,46.4,29.95,SW,232,4.0,5.0,48,0.00,,,0.00,Wunderground v.1.15,2013-03-03 21:55:00,
2013-03-03 14:05:00,67.3,46.9,29.95,SW,223,4.0,4.0,48,0.00,,,0.00,Wunderground v.1.15,2013-03-03 22:05:00,
2013-03-03 14:15:00,67.5,46.6,29.95,SW,214,4.0,4.0,47,0.00,,,0.00,Wunderground v.1.15,2013-03-03 22:15:00,
2013-03-03 14:20:00,67.7,46.7,29.95,SW,235,4.0,4.0,47,0.00,,,0.00,Wunderground v.1.15,2013-03-03 22:20:00,
2013-03-03 14:30:00,68.8,46.6,29.95,West,262,3.0,4.0,45,0.00,,,0.00,Wunderground v.1.15,2013-03-03 22:30:00,
2013-03-03 14:35:00,68.8,46.6,29.95,WSW,242,3.0,4.0,45,0.00,,,0.00,Wunderground v.1.15,2013-03-03 22:35:00,
2013-03-03 14:46:00,67.6,46.6,29.95,SE,127,2.0,2.0,47,0.00,,,0.00,Wunderground v.1.15,2013-03-03 22:46:00,
2013-03-03 14:55:00,67.6,46.6,29.95,NE,42,1.0,2.0,47,0.00,,,0.00,Wunderground v.1.15,2013-03-03 22:55:00,
2013-03-03 15:00:00,66.8,47.6,29.95,WSW,238,1.0,1.0,50,0.00,,,0.00,Wunderground v.1.15,2013-03-03 23:00:00,
2013-03-03 15:05:00,67.1,46.7,29.95,East,85,1.0,1.0,48,0.00,,,0.00,Wunderground v.1.15,2013-03-03 23:05:00,
2013-03-03 15:15:00,67.7,47.3,29.95,NE,34,1.0,1.0,48,0.00,,,0.00,Wunderground v.1.15,2013-03-03 23:15:00,
2013-03-03 15:20:00,68.0,47.0,29.95,East,90,1.0,1.0,47,0.00,,,0.00,Wunderground v.1.15,2013-03-03 23:20:00,
2013-03-03 15:25:00,67.7,47.3,29.94,ESE,110,1.0,2.0,48,0.00,,,0.00,Wunderground v.1.15,2013-03-03 23:25:00,
2013-03-03 15:30:00,67.4,47.6,29.94,East,98,1.0,2.0,49,0.00,,,0.00,Wunderground v.1.15,2013-03-03 23:30:00,
2013-03-03 15:35:00,68.2,46.6,29.94,SW,223,1.0,3.0,46,0.00,,,0.00,Wunderground v.1.15,2013-03-03 23:35:00,
2013-03-03 15:40:00,67.9,45.8,29.94,SW,230,2.0,3.0,45,0.00,,,0.00,Wunderground v.1.15,2013-03-03 23:40:00,
2013-03-03 15:50:00,68.3,46.1,29.94,SW,234,2.0,5.0,45,0.00,,,0.00,Wunderground v.1.15,2013-03-03 23:50:00,
2013-03-03 16:00:00,66.7,45.3,29.94,West,262,4.0,4.0,46,0.00,,,0.00,Wunderground v.1.15,2013-03-04 00:00:00,
2013-03-03 16:05:00,65.8,45.6,29.93,WSW,242,5.0,5.0,48,0.00,,,0.00,Wunderground v.1.15,2013-03-04 00:05:00,
2013-03-03 16:15:00,65.5,46.4,29.94,West,259,4.0,7.0,50,0.00,,,0.00,Wunderground v.1.15,2013-03-04 00:15:00,
2013-03-03 16:20:00,65.2,46.6,29.94,SW,235,4.0,7.0,51,0.00,,,0.00,Wunderground v.1.15,2013-03-04 00:20:00,
2013-03-03 16:25:00,64.6,46.6,29.94,WSW,253,4.0,4.0,52,0.00,,,0.00,Wunderground v.1.15,2013-03-04 00:25:00,
2013-03-03 16:30:00,63.5,46.6,29.94,WSW,238,4.0,4.0,54,0.00,,,0.00,Wunderground v.1.15,2013-03-04 00:30:00,
2013-03-03 16:40:00,61.8,47.3,29.95,WSW,245,3.0,4.0,59,0.00,,,0.00,Wunderground v.1.15,2013-03-04 00:40:00,
2013-03-03 16:45:00,61.4,46.9,29.95,WSW,245,2.0,2.0,59,0.00,,,0.00,Wunderground v.1.15,2013-03-04 00:45:00,
2013-03-03 16:50:00,61.0,47.0,29.95,SW,219,1.0,3.0,60,0.00,,,0.00,Wunderground v.1.15,2013-03-04 00:50:00,
2013-03-03 16:55:00,60.4,46.9,29.95,WNW,300,2.0,2.0,61,0.00,,,0.00,Wunderground v.1.15,2013-03-04 00:55:00,
2013-03-03 17:00:00,60.2,47.1,29.95,WSW,247,2.0,2.0,62,0.00,,,0.00,Wunderground v.1.15,2013-03-04 01:00:00,
2013-03-03 17:05:00,60.1,47.5,29.95,WSW,244,0.0,2.0,63,0.00,,,0.00,Wunderground v.1.15,2013-03-04 01:05:00,
2013-03-03 17:15:00,60.0,47.4,29.96,WSW,241,0.0,0.0,63,0.00,,,0.00,Wunderground v.1.15,2013-03-04 01:15:00,
2013-03-03 17:25:00,59.2,46.6,29.96,North,356,0.0,0.0,63,0.00,,,0.00,Wunderground v.1.15,2013-03-04 01:25:00,
2013-03-03 17:30:00,59.0,46.8,29.96,NNE,18,0.0,1.0,64,0.00,,,0.00,Wunderground v.1.15,2013-03-04 01:30:00,
2013-03-03 17:35:00,58.8,47.1,29.96,NNE,30,0.0,0.0,65,0.00,,,0.00,Wunderground v.1.15,2013-03-04 01:35:00,
2013-03-03 17:40:00,58.7,47.4,29.97,NE,37,0.0,0.0,66,0.00,,,0.00,Wunderground v.1.15,2013-03-04 01:40:00,
2013-03-03 17:45:00,58.2,46.5,29.97,NNW,343,1.0,3.0,65,0.00,,,0.00,Wunderground v.1.15,2013-03-04 01:45:00,
2013-03-03 17:55:00,57.3,45.6,29.97,NE,44,2.0,2.0,65,0.00,,,0.00,Wunderground v.1.15,2013-03-04 01:55:00,
2013-03-03 18:00:00,57.0,44.9,29.97,NW,324,2.0,2.0,64,0.00,,,0.00,Wunderground v.1.15,2013-03-04 02:00:00,
2013-03-03 18:05:00,56.7,44.7,29.97,NNW,329,1.0,2.0,64,0.00,,,0.00,Wunderground v.1.15,2013-03-04 02:05:00,
2013-03-03 18:15:00,56.1,44.5,29.97,NW,312,0.0,1.0,65,0.00,,,0.00,Wunderground v.1.15,2013-03-04 02:15:00,
2013-03-03 18:20:00,56.0,44.0,29.97,ENE,58,1.0,2.0,64,0.00,,,0.00,Wunderground v.1.15,2013-03-04 02:20:00,
2013-03-03 18:25:00,55.8,43.8,29.97,NNE,19,1.0,1.0,64,0.00,,,0.00,Wunderground v.1.15,2013-03-04 02:25:00,
2013-03-03 18:35:00,55.5,43.5,29.97,NNE,28,0.0,0.0,64,0.00,,,0.00,Wunderground v.1.15,2013-03-04 02:35:00,
2013-03-03 18:40:00,55.1,43.5,29.96,NNW,330,0.0,1.0,65,0.00,,,0.00,Wunderground v.1.15,2013-03-04 02:40:00,
2013-03-03 18:45:00,54.7,43.6,29.97,NW,323,0.0,0.0,66,0.00,,,0.00,Wunderground v.1.15,2013-03-04 02:45:00,
2013-03-03 18:50:00,54.5,43.4,29.97,NW,323,0.0,0.0,66,0.00,,,0.00,Wunderground v.1.15,2013-03-04 02:50:00,
2013-03-03 18:55:00,54.2,43.1,29.97,NW,323,0.0,0.0,66,0.00,,,0.00,Wunderground v.1.15,2013-03-04 02:55:00,
2013-03-03 19:00:00,53.8,43.1,29.97,NW,323,0.0,0.0,67,0.00,,,0.00,Wunderground v.1.15,2013-03-04 03:00:00,
2013-03-03 19:05:00,53.5,42.4,29.97,NW,320,0.0,0.0,66,0.00,,,0.00,Wunderground v.1.15,2013-03-04 03:05:00,
2013-03-03 19:15:00,53.4,43.1,29.97,WSW,245,0.0,0.0,68,0.00,,,0.00,Wunderground v.1.15,2013-03-04 03:15:00,
2013-03-03 19:20:00,52.9,43.0,29.97,SW,232,0.0,0.0,69,0.00,,,0.00,Wunderground v.1.15,2013-03-04 03:20:00,
2013-03-03 19:25:00,52.5,43.0,29.97,SSW,205,0.0,0.0,70,0.00,,,0.00,Wunderground v.1.15,2013-03-04 03:25:00,
2013-03-03 19:30:00,52.1,43.0,29.97,SSW,205,0.0,0.0,71,0.00,,,0.00,Wunderground v.1.15,2013-03-04 03:30:00,
2013-03-03 19:35:00,51.7,43.0,29.98,SSW,205,0.0,0.0,72,0.00,,,0.00,Wunderground v.1.15,2013-03-04 03:35:00,
2013-03-03 19:40:00,51.8,43.1,29.98,ENE,65,0.0,0.0,72,0.00,,,0.00,Wunderground v.1.15,2013-03-04 03:40:00,
2013-03-03 19:45:00,51.8,43.1,29.98,NNW,346,0.0,0.0,72,0.00,,,0.00,Wunderground v.1.15,2013-03-04 03:45:00,
2013-03-03 19:55:00,51.3,43.3,29.98,NE,50,0.0,0.0,74,0.00,,,0.00,Wunderground v.1.15,2013-03-04 03:55:00,
2013-03-03 20:00:00,51.3,43.3,29.98,NE,50,0.0,0.0,74,0.00,,,0.00,Wunderground v.1.15,2013-03-04 04:00:00,
2013-03-03 20:05:00,51.1,43.1,29.98,NE,50,0.0,0.0,74,0.00,,,0.00,Wunderground v.1.15,2013-03-04 04:05:00,
2013-03-03 20:15:00,50.8,43.2,29.98,NE,49,0.0,0.0,75,0.00,,,0.00,Wunderground v.1.15,2013-03-04 04:15:00,
2013-03-03 20:20:00,50.9,43.3,29.98,NW,307,0.0,0.0,75,0.00,,,0.00,Wunderground v.1.15,2013-03-04 04:20:00,
2013-03-03 20:25:00,50.8,43.2,29.98,NW,307,0.0,0.0,75,0.00,,,0.00,Wunderground v.1.15,2013-03-04 04:25:00,
2013-03-03 20:30:00,50.3,43.0,29.98,NW,322,0.0,0.0,76,0.00,,,0.00,Wunderground v.1.15,2013-03-04 04:30:00,
2013-03-03 20:35:00,50.0,43.1,29.98,NNW,333,0.0,0.0,77,0.00,,,0.00,Wunderground v.1.15,2013-03-04 04:35:00,
2013-03-03 20:40:00,49.6,42.7,29.99,NE,39,0.0,0.0,77,0.00,,,0.00,Wunderground v.1.15,2013-03-04 04:40:00,
2013-03-03 20:50:00,49.2,42.6,29.99,NE,38,0.0,0.0,78,0.00,,,0.00,Wunderground v.1.15,2013-03-04 04:50:00,
2013-03-03 20:55:00,49.0,42.8,29.99,NE,38,0.0,0.0,79,0.00,,,0.00,Wunderground v.1.15,2013-03-04 04:55:00,
2013-03-03 21:00:00,49.0,43.1,29.99,NNE,33,0.0,0.0,80,0.00,,,0.00,Wunderground v.1.15,2013-03-04 05:00:00,
2013-03-03 21:05:00,49.4,42.8,29.99,ESE,114,0.0,1.0,78,0.00,,,0.00,Wunderground v.1.15,2013-03-04 05:05:00,
2013-03-03 21:15:00,49.6,43.0,30.00,ESE,113,0.0,0.0,78,0.00,,,0.00,Wunderground v.1.15,2013-03-04 05:15:00,
2013-03-03 21:20:00,49.8,43.2,30.00,NNW,347,0.0,0.0,78,0.00,,,0.00,Wunderground v.1.15,2013-03-04 05:20:00,
2013-03-03 21:25:00,50.0,43.1,30.00,SE,125,0.0,0.0,77,0.00,,,0.00,Wunderground v.1.15,2013-03-04 05:25:00,
2013-03-03 21:30:00,50.1,43.2,30.00,ESE,122,0.0,0.0,77,0.00,,,0.00,Wunderground v.1.15,2013-03-04 05:30:00,
2013-03-03 21:35:00,50.1,43.2,30.00,ESE,122,0.0,0.0,77,0.00,,,0.00,Wunderground v.1.15,2013-03-04 05:35:00,
2013-03-03 21:40:00,49.7,43.1,30.00,ESE,105,0.0,0.0,78,0.00,,,0.00,Wunderground v.1.15,2013-03-04 05:40:00,
2013-03-03 21:50:00,49.7,43.1,29.99,NE,56,1.0,2.0,78,0.00,,,0.00,Wunderground v.1.15,2013-03-04 05:50:00,
2013-03-03 21:55:00,49.5,42.9,30.00,NNE,27,1.0,1.0,78,0.00,,,0.00,Wunderground v.1.15,2013-03-04 05:55:00,
2013-03-03 22:00:00,49.2,42.6,29.99,NNE,27,0.0,0.0,78,0.00,,,0.00,Wunderground v.1.15,2013-03-04 06:00:00,
2013-03-03 22:05:00,49.1,42.9,29.99,NNW,327,0.0,0.0,79,0.00,,,0.00,Wunderground v.1.15,2013-03-04 06:05:00,
2013-03-03 22:15:00,49.3,42.7,30.00,SW,217,0.0,0.0,78,0.00,,,0.00,Wunderground v.1.15,2013-03-04 06:15:00,
2013-03-03 22:20:00,49.1,42.9,30.00,NNW,336,0.0,1.0,79,0.00,,,0.00,Wunderground v.1.15,2013-03-04 06:20:00,
2013-03-03 22:25:00,48.9,42.7,30.00,WSW,239,0.0,0.0,79,0.00,,,0.00,Wunderground v.1.15,2013-03-04 06:25:00,
2013-03-03 22:30:00,48.3,42.4,30.00,WSW,240,0.0,0.0,80,0.00,,,0.00,Wunderground v.1.15,2013-03-04 06:30:00,
2013-03-03 22:35:00,47.8,42.3,30.00,ESE,105,0.0,0.0,81,0.00,,,0.00,Wunderground v.1.15,2013-03-04 06:35:00,
2013-03-03 22:40:00,48.1,42.5,30.00,SE,134,0.0,0.0,81,0.00,,,0.00,Wunderground v.1.15,2013-03-04 06:40:00,
2013-03-03 22:50:00,48.4,42.5,30.00,ESE,105,0.0,0.0,80,0.00,,,0.00,Wunderground v.1.15,2013-03-04 06:50:00,
2013-03-03 22:55:00,48.3,42.7,30.00,East,85,0.0,0.0,81,0.00,,,0.00,Wunderground v.1.15,2013-03-04 06:55:00,
2013-03-03 23:00:00,47.9,42.3,30.01,ENE,57,0.0,0.0,81,0.00,,,0.00,Wunderground v.1.15,2013-03-04 07:00:00,
2013-03-03 23:05:00,47.4,42.2,30.00,ENE,58,0.0,0.0,82,0.00,,,0.00,Wunderground v.1.15,2013-03-04 07:05:00,
2013-03-03 23:15:00,47.4,42.5,30.00,ENE,74,0.0,0.0,83,0.00,,,0.00,Wunderground v.1.15,2013-03-04 07:15:00,
2013-03-03 23:20:00,47.2,42.3,30.00,East,84,0.0,1.0,83,0.00,,,0.00,Wunderground v.1.15,2013-03-04 07:20:00,
2013-03-03 23:25:00,47.3,42.4,30.00,ENE,78,1.0,1.0,83,0.00,,,0.00,Wunderground v.1.15,2013-03-04 07:25:00,
2013-03-03 23:30:00,47.2,42.3,30.00,NNE,28,1.0,1.0,83,0.00,,,0.00,Wunderground v.1.15,2013-03-04 07:30:00,
2013-03-03 23:35:00,47.0,42.1,29.99,NNE,27,0.0,0.0,83,0.00,,,0.00,Wunderground v.1.15,2013-03-04 07:35:00,
2013-03-03 23:40:00,46.9,42.3,29.99,NNE,27,0.0,0.0,84,0.00,,,0.00,Wunderground v.1.15,2013-03-04 07:40:00,
2013-03-03 23:50:00,46.8,42.2,30.00,NW,316,1.0,1.0,84,0.00,,,0.00,Wunderground v.1.15,2013-03-04 07:50:00,
2013-03-03 23:55:00,47.0,42.4,30.00,WNW,301,1.0,1.0,84,0.00,,,0.00,Wunderground v.1.15,2013-03-04 07:55:00,